sensor_id;sensor_type;location;lat;lon;timestamp;P1;durP1;ratioP1;P2;durP2;ratioP2
7191;SDS011;3637;51.494;11.958;2022-11-15T00:01:39;9.23;;;5.83;;
7191;SDS011;3637;51.494;11.958;2022-11-15T00:04:41;10.77;;;6.43;;
7191;SDS011;3637;51.494;11.958;2022-11-15T00:07:42;9.70;;;6.33;;
7191;SDS011;3637;51.494;11.958;2022-11-15T00:10:53;11.93;;;7.33;;
7191;SDS011;3637;51.494;11.958;2022-11-15T00:13:57;11.80;;;7.17;;
7191;SDS011;3637;51.494;11.958;2022-11-15T00:17:02;10.13;;;6.13;;
7191;SDS011;3637;51.494;11.958;2022-11-15T00:20:04;8.57;;;6.27;;
7191;SDS011;3637;51.494;11.958;2022-11-15T00:23:07;10.13;;;6.33;;
7191;SDS011;3637;51.494;11.958;2022-11-15T00:26:10;12.07;;;6.40;;
7191;SDS011;3637;51.494;11.958;2022-11-15T00:29:14;9.20;;;6.43;;
7191;SDS011;3637;51.494;11.958;2022-11-15T00:32:16;10.23;;;6.30;;
7191;SDS011;3637;51.494;11.958;2022-11-15T00:35:18;8.70;;;5.90;;
7191;SDS011;3637;51.494;11.958;2022-11-15T00:38:21;10.33;;;6.30;;
7191;SDS011;3637;51.494;11.958;2022-11-15T00:41:23;10.70;;;6.87;;
7191;SDS011;3637;51.494;11.958;2022-11-15T00:44:28;9.57;;;6.40;;
7191;SDS011;3637;51.494;11.958;2022-11-15T00:47:30;9.90;;;5.90;;
7191;SDS011;3637;51.494;11.958;2022-11-15T00:50:32;10.60;;;6.20;;
7191;SDS011;3637;51.494;11.958;2022-11-15T00:53:34;10.20;;;5.53;;
7191;SDS011;3637;51.494;11.958;2022-11-15T00:56:36;8.97;;;6.20;;
7191;SDS011;3637;51.494;11.958;2022-11-15T00:59:39;8.77;;;5.43;;
7191;SDS011;3637;51.494;11.958;2022-11-15T01:02:41;12.30;;;5.90;;
7191;SDS011;3637;51.494;11.958;2022-11-15T01:05:43;10.70;;;6.37;;
7191;SDS011;3637;51.494;11.958;2022-11-15T01:08:45;7.67;;;5.37;;
7191;SDS011;3637;51.494;11.958;2022-11-15T01:11:47;9.60;;;6.27;;
7191;SDS011;3637;51.494;11.958;2022-11-15T01:14:50;9.63;;;6.20;;
7191;SDS011;3637;51.494;11.958;2022-11-15T01:17:52;9.30;;;6.17;;
7191;SDS011;3637;51.494;11.958;2022-11-15T01:20:54;9.10;;;6.60;;
7191;SDS011;3637;51.494;11.958;2022-11-15T01:24:02;9.43;;;6.03;;
7191;SDS011;3637;51.494;11.958;2022-11-15T01:27:04;8.50;;;6.27;;
7191;SDS011;3637;51.494;11.958;2022-11-15T01:30:08;9.77;;;6.07;;
7191;SDS011;3637;51.494;11.958;2022-11-15T01:33:10;8.13;;;6.07;;
7191;SDS011;3637;51.494;11.958;2022-11-15T01:36:13;8.20;;;5.83;;
7191;SDS011;3637;51.494;11.958;2022-11-15T01:39:16;8.53;;;5.70;;
7191;SDS011;3637;51.494;11.958;2022-11-15T01:42:19;10.17;;;5.97;;
7191;SDS011;3637;51.494;11.958;2022-11-15T01:45:22;8.33;;;5.97;;
7191;SDS011;3637;51.494;11.958;2022-11-15T01:48:24;9.73;;;6.10;;
7191;SDS011;3637;51.494;11.958;2022-11-15T01:51:32;9.17;;;5.70;;
7191;SDS011;3637;51.494;11.958;2022-11-15T01:54:34;7.23;;;5.00;;
7191;SDS011;3637;51.494;11.958;2022-11-15T01:57:36;9.00;;;5.83;;
7191;SDS011;3637;51.494;11.958;2022-11-15T02:00:40;8.70;;;5.80;;
7191;SDS011;3637;51.494;11.958;2022-11-15T02:03:43;10.23;;;6.43;;
7191;SDS011;3637;51.494;11.958;2022-11-15T02:06:53;8.67;;;5.67;;
7191;SDS011;3637;51.494;11.958;2022-11-15T02:09:55;9.13;;;5.63;;
7191;SDS011;3637;51.494;11.958;2022-11-15T02:13:02;7.87;;;5.73;;
7191;SDS011;3637;51.494;11.958;2022-11-15T02:16:08;9.00;;;5.67;;
7191;SDS011;3637;51.494;11.958;2022-11-15T02:19:19;9.03;;;5.47;;
7191;SDS011;3637;51.494;11.958;2022-11-15T02:22:42;8.57;;;5.63;;
7191;SDS011;3637;51.494;11.958;2022-11-15T02:25:59;7.87;;;5.53;;
7191;SDS011;3637;51.494;11.958;2022-11-15T02:29:19;10.93;;;5.50;;
7191;SDS011;3637;51.494;11.958;2022-11-15T02:32:36;9.13;;;5.50;;
7191;SDS011;3637;51.494;11.958;2022-11-15T02:35:47;9.33;;;5.77;;
7191;SDS011;3637;51.494;11.958;2022-11-15T02:39:00;7.97;;;5.50;;
7191;SDS011;3637;51.494;11.958;2022-11-15T02:42:09;8.07;;;5.77;;
7191;SDS011;3637;51.494;11.958;2022-11-15T02:45:30;9.47;;;6.20;;
7191;SDS011;3637;51.494;11.958;2022-11-15T02:48:38;8.63;;;5.60;;
7191;SDS011;3637;51.494;11.958;2022-11-15T02:51:41;7.93;;;5.37;;
7191;SDS011;3637;51.494;11.958;2022-11-15T02:54:52;8.53;;;6.03;;
7191;SDS011;3637;51.494;11.958;2022-11-15T02:57:58;9.00;;;6.13;;
7191;SDS011;3637;51.494;11.958;2022-11-15T03:01:28;9.30;;;6.07;;
7191;SDS011;3637;51.494;11.958;2022-11-15T03:04:42;9.13;;;6.20;;
7191;SDS011;3637;51.494;11.958;2022-11-15T03:07:51;8.63;;;5.30;;
7191;SDS011;3637;51.494;11.958;2022-11-15T03:11:02;8.50;;;5.37;;
7191;SDS011;3637;51.494;11.958;2022-11-15T03:14:12;9.10;;;5.73;;
7191;SDS011;3637;51.494;11.958;2022-11-15T03:17:23;9.77;;;6.03;;
7191;SDS011;3637;51.494;11.958;2022-11-15T03:20:29;8.00;;;5.50;;
7191;SDS011;3637;51.494;11.958;2022-11-15T03:23:32;7.47;;;5.43;;
7191;SDS011;3637;51.494;11.958;2022-11-15T03:26:36;10.17;;;6.10;;
7191;SDS011;3637;51.494;11.958;2022-11-15T03:29:44;8.43;;;6.13;;
7191;SDS011;3637;51.494;11.958;2022-11-15T03:32:50;8.50;;;5.47;;
7191;SDS011;3637;51.494;11.958;2022-11-15T03:35:56;9.50;;;6.23;;
7191;SDS011;3637;51.494;11.958;2022-11-15T03:38:59;9.00;;;5.30;;
7191;SDS011;3637;51.494;11.958;2022-11-15T03:42:12;9.07;;;5.83;;
7191;SDS011;3637;51.494;11.958;2022-11-15T03:45:22;7.63;;;4.93;;
7191;SDS011;3637;51.494;11.958;2022-11-15T03:48:29;9.47;;;5.83;;
7191;SDS011;3637;51.494;11.958;2022-11-15T03:51:36;10.37;;;5.97;;
7191;SDS011;3637;51.494;11.958;2022-11-15T03:54:47;7.80;;;5.20;;
7191;SDS011;3637;51.494;11.958;2022-11-15T03:57:52;8.93;;;5.60;;
7191;SDS011;3637;51.494;11.958;2022-11-15T04:00:57;6.90;;;5.33;;
7191;SDS011;3637;51.494;11.958;2022-11-15T04:04:00;12.40;;;5.73;;
7191;SDS011;3637;51.494;11.958;2022-11-15T04:07:03;9.40;;;6.20;;
7191;SDS011;3637;51.494;11.958;2022-11-15T04:10:05;8.77;;;5.83;;
7191;SDS011;3637;51.494;11.958;2022-11-15T04:13:08;10.57;;;5.80;;
7191;SDS011;3637;51.494;11.958;2022-11-15T04:16:10;9.70;;;5.87;;
7191;SDS011;3637;51.494;11.958;2022-11-15T04:19:11;8.40;;;5.93;;
7191;SDS011;3637;51.494;11.958;2022-11-15T04:22:32;7.93;;;5.30;;
7191;SDS011;3637;51.494;11.958;2022-11-15T04:25:52;10.33;;;6.07;;
7191;SDS011;3637;51.494;11.958;2022-11-15T04:28:55;8.90;;;5.67;;
7191;SDS011;3637;51.494;11.958;2022-11-15T04:32:15;7.70;;;5.40;;
7191;SDS011;3637;51.494;11.958;2022-11-15T04:35:16;11.17;;;5.83;;
7191;SDS011;3637;51.494;11.958;2022-11-15T04:38:20;8.40;;;5.90;;
7191;SDS011;3637;51.494;11.958;2022-11-15T04:41:21;7.73;;;5.07;;
7191;SDS011;3637;51.494;11.958;2022-11-15T04:44:23;7.00;;;5.30;;
7191;SDS011;3637;51.494;11.958;2022-11-15T04:47:25;13.47;;;6.27;;
7191;SDS011;3637;51.494;11.958;2022-11-15T04:50:27;7.13;;;5.23;;
7191;SDS011;3637;51.494;11.958;2022-11-15T04:53:30;9.33;;;5.83;;
7191;SDS011;3637;51.494;11.958;2022-11-15T04:56:32;8.20;;;5.43;;
7191;SDS011;3637;51.494;11.958;2022-11-15T04:59:34;9.77;;;5.53;;
7191;SDS011;3637;51.494;11.958;2022-11-15T05:02:36;8.10;;;5.80;;
7191;SDS011;3637;51.494;11.958;2022-11-15T05:05:55;10.80;;;6.30;;
7191;SDS011;3637;51.494;11.958;2022-11-15T05:08:59;8.63;;;6.23;;
7191;SDS011;3637;51.494;11.958;2022-11-15T05:12:01;9.33;;;5.87;;
7191;SDS011;3637;51.494;11.958;2022-11-15T05:15:03;8.10;;;5.40;;
7191;SDS011;3637;51.494;11.958;2022-11-15T05:18:05;8.53;;;5.37;;
7191;SDS011;3637;51.494;11.958;2022-11-15T05:21:08;8.07;;;5.90;;
7191;SDS011;3637;51.494;11.958;2022-11-15T05:24:12;8.77;;;6.17;;
7191;SDS011;3637;51.494;11.958;2022-11-15T05:27:14;8.80;;;6.03;;
7191;SDS011;3637;51.494;11.958;2022-11-15T05:30:16;8.67;;;5.50;;
7191;SDS011;3637;51.494;11.958;2022-11-15T05:33:18;7.93;;;5.83;;
7191;SDS011;3637;51.494;11.958;2022-11-15T05:36:21;9.23;;;5.20;;
7191;SDS011;3637;51.494;11.958;2022-11-15T05:39:29;8.47;;;5.80;;
7191;SDS011;3637;51.494;11.958;2022-11-15T05:42:31;8.13;;;5.60;;
7191;SDS011;3637;51.494;11.958;2022-11-15T05:45:33;7.80;;;5.73;;
7191;SDS011;3637;51.494;11.958;2022-11-15T05:48:36;9.10;;;5.97;;
7191;SDS011;3637;51.494;11.958;2022-11-15T05:51:40;8.47;;;5.47;;
7191;SDS011;3637;51.494;11.958;2022-11-15T05:54:46;7.57;;;5.43;;
7191;SDS011;3637;51.494;11.958;2022-11-15T05:57:49;7.77;;;5.57;;
7191;SDS011;3637;51.494;11.958;2022-11-15T06:00:50;7.50;;;5.20;;
7191;SDS011;3637;51.494;11.958;2022-11-15T06:03:52;9.37;;;6.10;;
7191;SDS011;3637;51.494;11.958;2022-11-15T06:06:54;9.97;;;6.03;;
7191;SDS011;3637;51.494;11.958;2022-11-15T06:09:57;8.20;;;6.17;;
7191;SDS011;3637;51.494;11.958;2022-11-15T06:13:00;7.87;;;5.70;;
7191;SDS011;3637;51.494;11.958;2022-11-15T06:16:03;9.20;;;5.37;;
7191;SDS011;3637;51.494;11.958;2022-11-15T06:19:06;9.50;;;6.20;;
7191;SDS011;3637;51.494;11.958;2022-11-15T06:22:08;8.00;;;5.57;;
7191;SDS011;3637;51.494;11.958;2022-11-15T06:25:11;10.17;;;6.13;;
7191;SDS011;3637;51.494;11.958;2022-11-15T06:28:14;9.57;;;6.37;;
7191;SDS011;3637;51.494;11.958;2022-11-15T06:31:15;7.77;;;5.57;;
7191;SDS011;3637;51.494;11.958;2022-11-15T06:34:17;11.03;;;6.70;;
7191;SDS011;3637;51.494;11.958;2022-11-15T06:37:19;8.80;;;6.40;;
7191;SDS011;3637;51.494;11.958;2022-11-15T06:40:22;9.93;;;6.10;;
7191;SDS011;3637;51.494;11.958;2022-11-15T06:43:24;7.90;;;5.37;;
7191;SDS011;3637;51.494;11.958;2022-11-15T06:46:26;9.43;;;5.53;;
7191;SDS011;3637;51.494;11.958;2022-11-15T06:49:29;7.23;;;5.23;;
7191;SDS011;3637;51.494;11.958;2022-11-15T06:52:31;10.33;;;6.50;;
7191;SDS011;3637;51.494;11.958;2022-11-15T06:55:35;7.23;;;4.97;;
7191;SDS011;3637;51.494;11.958;2022-11-15T06:58:37;13.80;;;5.67;;
7191;SDS011;3637;51.494;11.958;2022-11-15T07:01:38;7.87;;;5.13;;
7191;SDS011;3637;51.494;11.958;2022-11-15T07:04:40;8.47;;;5.17;;
7191;SDS011;3637;51.494;11.958;2022-11-15T07:07:42;9.30;;;5.63;;
7191;SDS011;3637;51.494;11.958;2022-11-15T07:10:45;10.57;;;5.33;;
7191;SDS011;3637;51.494;11.958;2022-11-15T07:13:47;7.23;;;4.93;;
7191;SDS011;3637;51.494;11.958;2022-11-15T07:16:49;8.47;;;6.17;;
7191;SDS011;3637;51.494;11.958;2022-11-15T07:19:51;7.60;;;5.37;;
7191;SDS011;3637;51.494;11.958;2022-11-15T07:22:58;8.63;;;4.97;;
7191;SDS011;3637;51.494;11.958;2022-11-15T07:26:02;8.30;;;5.40;;
7191;SDS011;3637;51.494;11.958;2022-11-15T07:29:04;8.10;;;5.17;;
7191;SDS011;3637;51.494;11.958;2022-11-15T07:32:06;8.50;;;5.20;;
7191;SDS011;3637;51.494;11.958;2022-11-15T07:35:08;7.57;;;5.67;;
7191;SDS011;3637;51.494;11.958;2022-11-15T07:38:10;7.20;;;5.40;;
7191;SDS011;3637;51.494;11.958;2022-11-15T07:41:14;7.33;;;5.43;;
7191;SDS011;3637;51.494;11.958;2022-11-15T07:44:16;8.20;;;5.20;;
7191;SDS011;3637;51.494;11.958;2022-11-15T07:47:17;10.67;;;5.80;;
7191;SDS011;3637;51.494;11.958;2022-11-15T07:50:20;9.87;;;5.93;;
7191;SDS011;3637;51.494;11.958;2022-11-15T07:53:22;10.83;;;6.23;;
7191;SDS011;3637;51.494;11.958;2022-11-15T07:56:25;7.83;;;5.77;;
7191;SDS011;3637;51.494;11.958;2022-11-15T07:59:30;9.43;;;5.87;;
7191;SDS011;3637;51.494;11.958;2022-11-15T08:02:32;9.10;;;5.33;;
7191;SDS011;3637;51.494;11.958;2022-11-15T08:05:34;7.03;;;5.23;;
7191;SDS011;3637;51.494;11.958;2022-11-15T08:08:37;7.47;;;5.37;;
7191;SDS011;3637;51.494;11.958;2022-11-15T08:11:40;7.50;;;5.30;;
7191;SDS011;3637;51.494;11.958;2022-11-15T08:14:42;9.07;;;5.57;;
7191;SDS011;3637;51.494;11.958;2022-11-15T08:17:44;8.07;;;5.53;;
7191;SDS011;3637;51.494;11.958;2022-11-15T08:20:46;10.57;;;5.10;;
7191;SDS011;3637;51.494;11.958;2022-11-15T08:23:47;8.07;;;5.60;;
7191;SDS011;3637;51.494;11.958;2022-11-15T08:26:51;8.40;;;5.40;;
7191;SDS011;3637;51.494;11.958;2022-11-15T08:29:53;9.53;;;6.17;;
7191;SDS011;3637;51.494;11.958;2022-11-15T08:32:56;10.67;;;5.60;;
7191;SDS011;3637;51.494;11.958;2022-11-15T08:35:59;6.57;;;4.67;;
7191;SDS011;3637;51.494;11.958;2022-11-15T08:39:02;7.87;;;5.17;;
7191;SDS011;3637;51.494;11.958;2022-11-15T08:42:06;8.93;;;5.70;;
7191;SDS011;3637;51.494;11.958;2022-11-15T08:45:08;8.23;;;5.57;;
7191;SDS011;3637;51.494;11.958;2022-11-15T08:48:10;9.97;;;5.47;;
7191;SDS011;3637;51.494;11.958;2022-11-15T08:51:12;9.03;;;5.83;;
7191;SDS011;3637;51.494;11.958;2022-11-15T08:54:14;8.90;;;5.57;;
7191;SDS011;3637;51.494;11.958;2022-11-15T08:57:18;8.73;;;5.23;;
7191;SDS011;3637;51.494;11.958;2022-11-15T09:00:19;7.10;;;4.97;;
7191;SDS011;3637;51.494;11.958;2022-11-15T09:03:21;6.47;;;5.07;;
7191;SDS011;3637;51.494;11.958;2022-11-15T09:06:23;7.87;;;5.23;;
7191;SDS011;3637;51.494;11.958;2022-11-15T09:09:25;5.93;;;4.50;;
7191;SDS011;3637;51.494;11.958;2022-11-15T09:12:31;8.20;;;5.07;;
7191;SDS011;3637;51.494;11.958;2022-11-15T09:15:33;9.10;;;5.27;;
7191;SDS011;3637;51.494;11.958;2022-11-15T09:18:35;8.00;;;5.00;;
7191;SDS011;3637;51.494;11.958;2022-11-15T09:21:37;6.57;;;4.90;;
7191;SDS011;3637;51.494;11.958;2022-11-15T09:24:39;10.03;;;5.50;;
7191;SDS011;3637;51.494;11.958;2022-11-15T09:27:42;6.60;;;4.90;;
7191;SDS011;3637;51.494;11.958;2022-11-15T09:30:44;9.37;;;5.07;;
7191;SDS011;3637;51.494;11.958;2022-11-15T09:33:46;8.20;;;5.33;;
7191;SDS011;3637;51.494;11.958;2022-11-15T09:36:48;8.50;;;5.47;;
7191;SDS011;3637;51.494;11.958;2022-11-15T09:39:50;13.90;;;5.70;;
7191;SDS011;3637;51.494;11.958;2022-11-15T09:42:58;7.73;;;5.03;;
7191;SDS011;3637;51.494;11.958;2022-11-15T09:46:12;6.97;;;4.90;;
7191;SDS011;3637;51.494;11.958;2022-11-15T09:49:18;9.17;;;5.10;;
7191;SDS011;3637;51.494;11.958;2022-11-15T09:52:20;7.20;;;4.87;;
7191;SDS011;3637;51.494;11.958;2022-11-15T09:55:24;6.70;;;4.73;;
7191;SDS011;3637;51.494;11.958;2022-11-15T09:58:36;7.33;;;4.47;;
7191;SDS011;3637;51.494;11.958;2022-11-15T10:01:44;6.77;;;4.53;;
7191;SDS011;3637;51.494;11.958;2022-11-15T10:04:56;6.47;;;4.43;;
7191;SDS011;3637;51.494;11.958;2022-11-15T10:08:01;6.60;;;4.40;;
7191;SDS011;3637;51.494;11.958;2022-11-15T10:11:07;5.90;;;4.47;;
7191;SDS011;3637;51.494;11.958;2022-11-15T10:14:15;6.93;;;4.30;;
7191;SDS011;3637;51.494;11.958;2022-11-15T10:17:22;9.07;;;4.57;;
7191;SDS011;3637;51.494;11.958;2022-11-15T10:20:39;6.33;;;4.37;;
7191;SDS011;3637;51.494;11.958;2022-11-15T10:23:47;6.77;;;3.90;;
7191;SDS011;3637;51.494;11.958;2022-11-15T10:26:49;7.97;;;4.10;;
7191;SDS011;3637;51.494;11.958;2022-11-15T10:29:53;6.87;;;4.03;;
7191;SDS011;3637;51.494;11.958;2022-11-15T10:32:55;6.33;;;4.33;;
7191;SDS011;3637;51.494;11.958;2022-11-15T10:39:28;5.10;;;3.90;;
7191;SDS011;3637;51.494;11.958;2022-11-15T10:42:30;3.80;;;3.10;;
7191;SDS011;3637;51.494;11.958;2022-11-15T10:45:34;5.23;;;3.60;;
7191;SDS011;3637;51.494;11.958;2022-11-15T10:48:36;4.83;;;3.63;;
7191;SDS011;3637;51.494;11.958;2022-11-15T10:51:40;5.73;;;3.20;;
7191;SDS011;3637;51.494;11.958;2022-11-15T10:54:44;4.50;;;3.43;;
7191;SDS011;3637;51.494;11.958;2022-11-15T10:57:50;8.20;;;4.00;;
7191;SDS011;3637;51.494;11.958;2022-11-15T11:00:55;4.87;;;3.30;;
7191;SDS011;3637;51.494;11.958;2022-11-15T11:04:07;4.83;;;3.27;;
7191;SDS011;3637;51.494;11.958;2022-11-15T11:07:19;3.67;;;3.00;;
7191;SDS011;3637;51.494;11.958;2022-11-15T11:10:22;4.10;;;3.10;;
7191;SDS011;3637;51.494;11.958;2022-11-15T11:13:25;6.53;;;3.50;;
7191;SDS011;3637;51.494;11.958;2022-11-15T11:16:40;4.10;;;3.47;;
7191;SDS011;3637;51.494;11.958;2022-11-15T11:19:55;4.70;;;3.43;;
7191;SDS011;3637;51.494;11.958;2022-11-15T11:23:04;3.50;;;3.00;;
7191;SDS011;3637;51.494;11.958;2022-11-15T11:26:31;5.10;;;3.30;;
7191;SDS011;3637;51.494;11.958;2022-11-15T11:29:45;4.13;;;3.03;;
7191;SDS011;3637;51.494;11.958;2022-11-15T11:33:06;4.13;;;3.00;;
7191;SDS011;3637;51.494;11.958;2022-11-15T11:36:16;5.13;;;3.10;;
7191;SDS011;3637;51.494;11.958;2022-11-15T11:39:24;4.37;;;3.03;;
7191;SDS011;3637;51.494;11.958;2022-11-15T11:42:41;5.03;;;3.60;;
7191;SDS011;3637;51.494;11.958;2022-11-15T11:45:52;3.67;;;2.90;;
7191;SDS011;3637;51.494;11.958;2022-11-15T11:49:08;7.77;;;3.40;;
7191;SDS011;3637;51.494;11.958;2022-11-15T11:52:11;3.90;;;3.00;;
7191;SDS011;3637;51.494;11.958;2022-11-15T11:55:19;5.90;;;3.53;;
7191;SDS011;3637;51.494;11.958;2022-11-15T11:58:33;5.53;;;3.43;;
7191;SDS011;3637;51.494;11.958;2022-11-15T12:01:39;4.07;;;3.00;;
7191;SDS011;3637;51.494;11.958;2022-11-15T12:04:46;4.43;;;3.20;;
7191;SDS011;3637;51.494;11.958;2022-11-15T12:07:51;4.17;;;2.47;;
7191;SDS011;3637;51.494;11.958;2022-11-15T12:10:59;4.60;;;2.63;;
7191;SDS011;3637;51.494;11.958;2022-11-15T12:14:08;4.57;;;3.00;;
7191;SDS011;3637;51.494;11.958;2022-11-15T12:17:19;3.73;;;2.67;;
7191;SDS011;3637;51.494;11.958;2022-11-15T12:20:27;4.90;;;2.67;;
7191;SDS011;3637;51.494;11.958;2022-11-15T12:23:37;3.17;;;2.63;;
7191;SDS011;3637;51.494;11.958;2022-11-15T12:26:46;4.27;;;2.77;;
7191;SDS011;3637;51.494;11.958;2022-11-15T12:29:52;4.23;;;2.90;;
7191;SDS011;3637;51.494;11.958;2022-11-15T12:32:58;4.10;;;2.80;;
7191;SDS011;3637;51.494;11.958;2022-11-15T12:36:03;2.73;;;2.40;;
7191;SDS011;3637;51.494;11.958;2022-11-15T12:39:06;4.73;;;2.80;;
7191;SDS011;3637;51.494;11.958;2022-11-15T12:45:37;3.77;;;3.00;;
7191;SDS011;3637;51.494;11.958;2022-11-15T12:48:51;2.80;;;2.20;;
7191;SDS011;3637;51.494;11.958;2022-11-15T12:52:07;3.07;;;2.50;;
7191;SDS011;3637;51.494;11.958;2022-11-15T12:55:29;2.77;;;2.30;;
7191;SDS011;3637;51.494;11.958;2022-11-15T12:58:39;3.37;;;2.53;;
7191;SDS011;3637;51.494;11.958;2022-11-15T13:01:57;2.90;;;2.10;;
7191;SDS011;3637;51.494;11.958;2022-11-15T13:08:55;3.43;;;2.40;;
7191;SDS011;3637;51.494;11.958;2022-11-15T13:11:57;3.13;;;2.10;;
7191;SDS011;3637;51.494;11.958;2022-11-15T13:15:07;2.20;;;2.03;;
7191;SDS011;3637;51.494;11.958;2022-11-15T13:18:41;2.83;;;2.10;;
7191;SDS011;3637;51.494;11.958;2022-11-15T13:21:48;2.73;;;2.13;;
7191;SDS011;3637;51.494;11.958;2022-11-15T13:25:15;2.63;;;1.90;;
7191;SDS011;3637;51.494;11.958;2022-11-15T13:28:21;1.90;;;1.70;;
7191;SDS011;3637;51.494;11.958;2022-11-15T13:31:34;7.93;;;2.30;;
7191;SDS011;3637;51.494;11.958;2022-11-15T13:34:37;2.40;;;2.07;;
7191;SDS011;3637;51.494;11.958;2022-11-15T13:37:40;2.77;;;2.27;;
7191;SDS011;3637;51.494;11.958;2022-11-15T13:40:44;2.47;;;2.07;;
7191;SDS011;3637;51.494;11.958;2022-11-15T13:43:46;2.90;;;2.30;;
7191;SDS011;3637;51.494;11.958;2022-11-15T13:46:48;4.07;;;1.93;;
7191;SDS011;3637;51.494;11.958;2022-11-15T13:50:02;3.47;;;2.60;;
7191;SDS011;3637;51.494;11.958;2022-11-15T13:53:05;2.67;;;2.10;;
7191;SDS011;3637;51.494;11.958;2022-11-15T13:56:09;3.70;;;2.40;;
7191;SDS011;3637;51.494;11.958;2022-11-15T13:59:14;4.47;;;2.30;;
7191;SDS011;3637;51.494;11.958;2022-11-15T14:02:29;3.40;;;2.40;;
7191;SDS011;3637;51.494;11.958;2022-11-15T14:05:33;3.47;;;2.73;;
7191;SDS011;3637;51.494;11.958;2022-11-15T14:08:34;3.87;;;2.60;;
7191;SDS011;3637;51.494;11.958;2022-11-15T14:11:38;5.07;;;2.07;;
7191;SDS011;3637;51.494;11.958;2022-11-15T14:14:50;4.93;;;2.70;;
7191;SDS011;3637;51.494;11.958;2022-11-15T14:17:53;4.10;;;2.60;;
7191;SDS011;3637;51.494;11.958;2022-11-15T14:21:05;3.50;;;2.40;;
7191;SDS011;3637;51.494;11.958;2022-11-15T14:24:13;4.47;;;2.63;;
7191;SDS011;3637;51.494;11.958;2022-11-15T14:27:21;2.80;;;2.30;;
7191;SDS011;3637;51.494;11.958;2022-11-15T14:30:25;2.67;;;2.40;;
7191;SDS011;3637;51.494;11.958;2022-11-15T14:33:27;4.20;;;2.23;;
7191;SDS011;3637;51.494;11.958;2022-11-15T14:36:31;3.20;;;2.53;;
7191;SDS011;3637;51.494;11.958;2022-11-15T14:39:33;6.67;;;3.10;;
7191;SDS011;3637;51.494;11.958;2022-11-15T14:42:36;4.20;;;3.00;;
7191;SDS011;3637;51.494;11.958;2022-11-15T14:45:38;5.17;;;3.23;;
7191;SDS011;3637;51.494;11.958;2022-11-15T14:48:40;7.10;;;4.57;;
7191;SDS011;3637;51.494;11.958;2022-11-15T14:51:42;5.73;;;3.70;;
7191;SDS011;3637;51.494;11.958;2022-11-15T14:54:44;6.83;;;3.30;;
7191;SDS011;3637;51.494;11.958;2022-11-15T14:57:47;12.80;;;4.00;;
7191;SDS011;3637;51.494;11.958;2022-11-15T15:00:49;6.67;;;3.67;;
7191;SDS011;3637;51.494;11.958;2022-11-15T15:03:51;7.80;;;3.73;;
7191;SDS011;3637;51.494;11.958;2022-11-15T15:06:55;9.73;;;4.50;;
7191;SDS011;3637;51.494;11.958;2022-11-15T15:09:57;8.13;;;4.50;;
7191;SDS011;3637;51.494;11.958;2022-11-15T15:13:00;7.60;;;4.10;;
7191;SDS011;3637;51.494;11.958;2022-11-15T15:16:03;7.77;;;4.80;;
7191;SDS011;3637;51.494;11.958;2022-11-15T15:19:05;9.70;;;5.20;;
7191;SDS011;3637;51.494;11.958;2022-11-15T15:22:09;9.80;;;5.33;;
7191;SDS011;3637;51.494;11.958;2022-11-15T15:25:23;12.23;;;6.03;;
7191;SDS011;3637;51.494;11.958;2022-11-15T15:28:29;11.33;;;6.27;;
7191;SDS011;3637;51.494;11.958;2022-11-15T15:31:31;10.73;;;6.23;;
7191;SDS011;3637;51.494;11.958;2022-11-15T15:34:33;9.33;;;5.50;;
7191;SDS011;3637;51.494;11.958;2022-11-15T15:37:35;10.17;;;6.57;;
7191;SDS011;3637;51.494;11.958;2022-11-15T15:40:37;14.33;;;6.87;;
7191;SDS011;3637;51.494;11.958;2022-11-15T15:43:41;14.60;;;6.03;;
7191;SDS011;3637;51.494;11.958;2022-11-15T15:46:43;9.13;;;5.23;;
7191;SDS011;3637;51.494;11.958;2022-11-15T15:49:45;12.67;;;5.50;;
7191;SDS011;3637;51.494;11.958;2022-11-15T15:52:48;9.40;;;5.10;;
7191;SDS011;3637;51.494;11.958;2022-11-15T15:55:50;6.20;;;4.70;;
7191;SDS011;3637;51.494;11.958;2022-11-15T15:58:53;7.13;;;4.30;;
7191;SDS011;3637;51.494;11.958;2022-11-15T16:01:55;8.73;;;4.60;;
7191;SDS011;3637;51.494;11.958;2022-11-15T16:04:57;5.70;;;4.43;;
7191;SDS011;3637;51.494;11.958;2022-11-15T16:07:59;7.17;;;4.47;;
7191;SDS011;3637;51.494;11.958;2022-11-15T16:11:01;7.50;;;4.17;;
7191;SDS011;3637;51.494;11.958;2022-11-15T16:14:07;10.30;;;4.57;;
7191;SDS011;3637;51.494;11.958;2022-11-15T16:17:10;8.77;;;4.63;;
7191;SDS011;3637;51.494;11.958;2022-11-15T16:20:22;6.97;;;4.70;;
7191;SDS011;3637;51.494;11.958;2022-11-15T16:23:30;7.07;;;4.50;;
7191;SDS011;3637;51.494;11.958;2022-11-15T16:26:32;8.07;;;5.30;;
7191;SDS011;3637;51.494;11.958;2022-11-15T16:29:38;6.30;;;5.27;;
7191;SDS011;3637;51.494;11.958;2022-11-15T16:32:40;9.53;;;5.23;;
7191;SDS011;3637;51.494;11.958;2022-11-15T16:35:41;12.03;;;6.80;;
7191;SDS011;3637;51.494;11.958;2022-11-15T16:38:43;15.93;;;5.73;;
7191;SDS011;3637;51.494;11.958;2022-11-15T16:41:45;10.47;;;5.90;;
7191;SDS011;3637;51.494;11.958;2022-11-15T16:44:48;8.00;;;5.93;;
7191;SDS011;3637;51.494;11.958;2022-11-15T16:47:51;8.23;;;5.30;;
7191;SDS011;3637;51.494;11.958;2022-11-15T16:50:54;8.33;;;5.10;;
7191;SDS011;3637;51.494;11.958;2022-11-15T16:53:57;8.73;;;5.00;;
7191;SDS011;3637;51.494;11.958;2022-11-15T16:56:58;9.27;;;4.50;;
7191;SDS011;3637;51.494;11.958;2022-11-15T17:00:03;9.07;;;5.27;;
7191;SDS011;3637;51.494;11.958;2022-11-15T17:03:06;7.03;;;4.67;;
7191;SDS011;3637;51.494;11.958;2022-11-15T17:06:08;7.33;;;4.80;;
7191;SDS011;3637;51.494;11.958;2022-11-15T17:09:12;8.33;;;4.57;;
7191;SDS011;3637;51.494;11.958;2022-11-15T17:12:15;7.23;;;4.50;;
7191;SDS011;3637;51.494;11.958;2022-11-15T17:15:19;9.00;;;4.97;;
7191;SDS011;3637;51.494;11.958;2022-11-15T17:18:21;6.97;;;4.93;;
7191;SDS011;3637;51.494;11.958;2022-11-15T17:21:23;6.77;;;4.70;;
7191;SDS011;3637;51.494;11.958;2022-11-15T17:24:27;8.47;;;5.00;;
7191;SDS011;3637;51.494;11.958;2022-11-15T17:27:29;8.90;;;4.80;;
7191;SDS011;3637;51.494;11.958;2022-11-15T17:30:33;6.83;;;4.10;;
7191;SDS011;3637;51.494;11.958;2022-11-15T17:33:35;9.07;;;5.33;;
7191;SDS011;3637;51.494;11.958;2022-11-15T17:36:38;9.00;;;5.27;;
7191;SDS011;3637;51.494;11.958;2022-11-15T17:39:39;9.07;;;5.40;;
7191;SDS011;3637;51.494;11.958;2022-11-15T17:42:41;7.67;;;4.77;;
7191;SDS011;3637;51.494;11.958;2022-11-15T17:45:45;9.77;;;5.70;;
7191;SDS011;3637;51.494;11.958;2022-11-15T17:48:47;7.80;;;5.60;;
7191;SDS011;3637;51.494;11.958;2022-11-15T17:51:49;9.20;;;5.67;;
7191;SDS011;3637;51.494;11.958;2022-11-15T17:54:51;9.57;;;6.03;;
7191;SDS011;3637;51.494;11.958;2022-11-15T17:57:53;8.27;;;5.87;;
7191;SDS011;3637;51.494;11.958;2022-11-15T18:01:03;9.20;;;5.93;;
7191;SDS011;3637;51.494;11.958;2022-11-15T18:04:06;7.60;;;5.17;;
7191;SDS011;3637;51.494;11.958;2022-11-15T18:07:09;11.30;;;6.30;;
7191;SDS011;3637;51.494;11.958;2022-11-15T18:10:12;6.90;;;5.50;;
7191;SDS011;3637;51.494;11.958;2022-11-15T18:13:14;7.87;;;5.47;;
7191;SDS011;3637;51.494;11.958;2022-11-15T18:16:18;8.27;;;5.23;;
7191;SDS011;3637;51.494;11.958;2022-11-15T18:19:21;7.10;;;5.30;;
7191;SDS011;3637;51.494;11.958;2022-11-15T18:22:23;6.57;;;4.87;;
7191;SDS011;3637;51.494;11.958;2022-11-15T18:25:25;6.87;;;5.03;;
7191;SDS011;3637;51.494;11.958;2022-11-15T18:28:31;8.07;;;5.67;;
7191;SDS011;3637;51.494;11.958;2022-11-15T18:31:36;8.57;;;5.33;;
7191;SDS011;3637;51.494;11.958;2022-11-15T18:34:38;8.57;;;5.30;;
7191;SDS011;3637;51.494;11.958;2022-11-15T18:37:40;8.47;;;5.47;;
7191;SDS011;3637;51.494;11.958;2022-11-15T18:40:42;7.47;;;5.30;;
7191;SDS011;3637;51.494;11.958;2022-11-15T18:43:44;8.77;;;5.60;;
7191;SDS011;3637;51.494;11.958;2022-11-15T18:46:50;8.00;;;6.27;;
7191;SDS011;3637;51.494;11.958;2022-11-15T18:49:52;8.03;;;6.07;;
7191;SDS011;3637;51.494;11.958;2022-11-15T18:52:57;8.53;;;6.30;;
7191;SDS011;3637;51.494;11.958;2022-11-15T18:56:00;8.57;;;6.33;;
7191;SDS011;3637;51.494;11.958;2022-11-15T18:59:03;8.60;;;6.27;;
7191;SDS011;3637;51.494;11.958;2022-11-15T19:02:07;10.30;;;6.00;;